sensor_id;sensor_type;location;lat;lon;timestamp;pressure;altitude;pressure_sealevel;temperature;humidity
23339;BME280;11841;49.368;20.962;2024-01-15T00:00:39;94113.31;;;0.68;76.05
23339;BME280;11841;49.368;20.962;2024-01-15T00:03:25;94105.06;;;0.65;75.95
23339;BME280;11841;49.368;20.962;2024-01-15T00:06:11;94108.69;;;0.64;76.19
23339;BME280;11841;49.368;20.962;2024-01-15T00:08:56;94109.06;;;0.61;76.29
23339;BME280;11841;49.368;20.962;2024-01-15T00:11:43;94100.25;;;0.62;76.33
23339;BME280;11841;49.368;20.962;2024-01-15T00:14:28;94101.88;;;0.63;76.18
23339;BME280;11841;49.368;20.962;2024-01-15T00:17:14;94096.66;;;0.63;76.20
23339;BME280;11841;49.368;20.962;2024-01-15T00:19:59;94099.63;;;0.60;76.44
23339;BME280;11841;49.368;20.962;2024-01-15T00:22:45;94091.81;;;0.60;76.44
23339;BME280;11841;49.368;20.962;2024-01-15T00:25:30;94103.88;;;0.61;76.56
23339;BME280;11841;49.368;20.962;2024-01-15T00:28:15;94107.25;;;0.61;76.26
23339;BME280;11841;49.368;20.962;2024-01-15T00:31:01;94096.41;;;0.58;76.49
23339;BME280;11841;49.368;20.962;2024-01-15T00:33:46;94104.06;;;0.59;76.48
23339;BME280;11841;49.368;20.962;2024-01-15T00:36:32;94102.44;;;0.58;76.91
23339;BME280;11841;49.368;20.962;2024-01-15T00:39:17;94096.81;;;0.55;76.86
23339;BME280;11841;49.368;20.962;2024-01-15T00:42:03;94104.41;;;0.50;77.03
23339;BME280;11841;49.368;20.962;2024-01-15T00:44:48;94099.81;;;0.52;77.28
23339;BME280;11841;49.368;20.962;2024-01-15T00:47:34;94095.97;;;0.48;77.52
23339;BME280;11841;49.368;20.962;2024-01-15T00:50:20;94101.78;;;0.50;77.41
23339;BME280;11841;49.368;20.962;2024-01-15T00:53:05;94092.59;;;0.54;77.25
23339;BME280;11841;49.368;20.962;2024-01-15T00:55:51;94098.44;;;0.56;77.19
23339;BME280;11841;49.368;20.962;2024-01-15T00:58:36;94091.19;;;0.58;76.90
23339;BME280;11841;49.368;20.962;2024-01-15T01:01:22;94082.38;;;0.59;76.92
23339;BME280;11841;49.368;20.962;2024-01-15T01:04:07;94078.56;;;0.55;76.94
23339;BME280;11841;49.368;20.962;2024-01-15T01:06:53;94073.50;;;0.47;77.46
23339;BME280;11841;49.368;20.962;2024-01-15T01:09:38;94075.91;;;0.48;77.28
23339;BME280;11841;49.368;20.962;2024-01-15T01:12:23;94070.13;;;0.53;77.13
23339;BME280;11841;49.368;20.962;2024-01-15T01:15:09;94069.75;;;0.56;77.28
23339;BME280;11841;49.368;20.962;2024-01-15T01:17:54;94066.53;;;0.54;77.28
23339;BME280;11841;49.368;20.962;2024-01-15T01:20:39;94062.47;;;0.45;77.38
23339;BME280;11841;49.368;20.962;2024-01-15T01:23:25;94063.69;;;0.42;77.70
23339;BME280;11841;49.368;20.962;2024-01-15T01:26:10;94062.47;;;0.45;77.45
23339;BME280;11841;49.368;20.962;2024-01-15T01:28:55;94056.06;;;0.47;76.97
23339;BME280;11841;49.368;20.962;2024-01-15T01:31:44;94038.44;;;0.49;77.14
23339;BME280;11841;49.368;20.962;2024-01-15T01:34:32;94039.22;;;0.50;77.09
23339;BME280;11841;49.368;20.962;2024-01-15T01:37:19;94034.00;;;0.50;76.85
23339;BME280;11841;49.368;20.962;2024-01-15T01:40:05;94029.59;;;0.50;77.37
23339;BME280;11841;49.368;20.962;2024-01-15T01:42:51;94030.44;;;0.51;77.18
23339;BME280;11841;49.368;20.962;2024-01-15T01:45:36;94025.22;;;0.51;77.28
23339;BME280;11841;49.368;20.962;2024-01-15T01:48:24;94024.81;;;0.54;76.78
23339;BME280;11841;49.368;20.962;2024-01-15T01:51:11;94020.41;;;0.54;76.61
23339;BME280;11841;49.368;20.962;2024-01-15T01:53:57;94030.44;;;0.51;76.86
23339;BME280;11841;49.368;20.962;2024-01-15T01:56:42;94022.97;;;0.48;76.80
23339;BME280;11841;49.368;20.962;2024-01-15T01:59:28;94017.75;;;0.48;76.54
23339;BME280;11841;49.368;20.962;2024-01-15T02:02:14;94015.34;;;0.46;76.34
23339;BME280;11841;49.368;20.962;2024-01-15T02:05:02;94002.91;;;0.42;76.19
23339;BME280;11841;49.368;20.962;2024-01-15T02:07:49;94013.13;;;0.37;75.88
23339;BME280;11841;49.368;20.962;2024-01-15T02:10:34;94017.13;;;0.33;75.81
23339;BME280;11841;49.368;20.962;2024-01-15T02:13:20;94006.88;;;0.31;75.46
23339;BME280;11841;49.368;20.962;2024-01-15T02:16:05;94001.25;;;0.28;75.52
23339;BME280;11841;49.368;20.962;2024-01-15T02:18:51;93991.84;;;0.27;75.45
23339;BME280;11841;49.368;20.962;2024-01-15T02:21:36;93991.63;;;0.22;75.21
23339;BME280;11841;49.368;20.962;2024-01-15T02:24:22;93989.00;;;0.15;75.24
23339;BME280;11841;49.368;20.962;2024-01-15T02:27:08;93996.56;;;0.03;75.77
23339;BME280;11841;49.368;20.962;2024-01-15T02:29:53;93996.56;;;0.03;76.30
23339;BME280;11841;49.368;20.962;2024-01-15T02:32:39;93994.56;;;0.06;75.81
23339;BME280;11841;49.368;20.962;2024-01-15T02:35:24;93984.34;;;0.04;76.16
23339;BME280;11841;49.368;20.962;2024-01-15T02:38:10;93979.75;;;0.06;75.98
23339;BME280;11841;49.368;20.962;2024-01-15T02:40:55;93973.72;;;0.06;75.65
23339;BME280;11841;49.368;20.962;2024-01-15T02:43:40;93973.72;;;0.06;76.03
23339;BME280;11841;49.368;20.962;2024-01-15T02:46:26;93963.91;;;0.08;76.04
23339;BME280;11841;49.368;20.962;2024-01-15T02:49:11;93945.69;;;0.08;75.91
23339;BME280;11841;49.368;20.962;2024-01-15T02:51:57;93958.28;;;0.04;76.10
23339;BME280;11841;49.368;20.962;2024-01-15T02:54:42;93955.28;;;0.07;75.96
23339;BME280;11841;49.368;20.962;2024-01-15T02:57:27;93955.28;;;0.07;75.99
23339;BME280;11841;49.368;20.962;2024-01-15T03:00:13;93954.69;;;0.05;75.63
23339;BME280;11841;49.368;20.962;2024-01-15T03:02:58;93952.66;;;0.00;75.90
23339;BME280;11841;49.368;20.962;2024-01-15T03:05:44;93936.03;;;0.02;75.95
23339;BME280;11841;49.368;20.962;2024-01-15T03:08:29;93940.44;;;0.01;75.91
23339;BME280;11841;49.368;20.962;2024-01-15T03:11:15;93933.41;;;-0.05;75.97
23339;BME280;11841;49.368;20.962;2024-01-15T03:14:00;93932.41;;;-0.04;76.59
23339;BME280;11841;49.368;20.962;2024-01-15T03:16:45;93924.59;;;-0.04;76.36
23339;BME280;11841;49.368;20.962;2024-01-15T03:19:34;93918.19;;;-0.02;75.80
23339;BME280;11841;49.368;20.962;2024-01-15T03:22:20;93911.75;;;-0.12;76.27
23339;BME280;11841;49.368;20.962;2024-01-15T03:25:06;93913.56;;;-0.13;76.56
23339;BME280;11841;49.368;20.962;2024-01-15T03:27:51;93911.34;;;-0.16;76.27
23339;BME280;11841;49.368;20.962;2024-01-15T03:30:37;93919.94;;;-0.15;76.62
23339;BME280;11841;49.368;20.962;2024-01-15T03:33:22;93918.75;;;-0.13;76.55
23339;BME280;11841;49.368;20.962;2024-01-15T03:36:08;93922.59;;;-0.09;76.45
23339;BME280;11841;49.368;20.962;2024-01-15T03:38:54;93917.78;;;-0.05;76.42
23339;BME280;11841;49.368;20.962;2024-01-15T03:41:39;93909.94;;;-0.12;76.49
23339;BME280;11841;49.368;20.962;2024-01-15T03:44:24;93909.56;;;-0.09;76.92
23339;BME280;11841;49.368;20.962;2024-01-15T03:47:10;93918.38;;;-0.03;77.01
23339;BME280;11841;49.368;20.962;2024-01-15T03:49:55;93920.78;;;-0.02;76.76
23339;BME280;11841;49.368;20.962;2024-01-15T03:52:40;93923.03;;;0.02;76.74
23339;BME280;11841;49.368;20.962;2024-01-15T03:55:26;93921.19;;;-0.05;76.79
23339;BME280;11841;49.368;20.962;2024-01-15T03:58:11;93922.41;;;-0.07;76.96
23339;BME280;11841;49.368;20.962;2024-01-15T04:00:56;93914.56;;;-0.07;76.81
23339;BME280;11841;49.368;20.962;2024-01-15T04:03:41;93919.41;;;-0.04;76.95
23339;BME280;11841;49.368;20.962;2024-01-15T04:06:27;93914.78;;;-0.02;76.53
23339;BME280;11841;49.368;20.962;2024-01-15T04:09:13;93901.16;;;-0.04;76.54
23339;BME280;11841;49.368;20.962;2024-01-15T04:11:59;93904.72;;;-0.12;76.63
23339;BME280;11841;49.368;20.962;2024-01-15T04:14:45;93888.28;;;-0.19;77.05
23339;BME280;11841;49.368;20.962;2024-01-15T04:17:30;93881.25;;;-0.25;77.20
23339;BME280;11841;49.368;20.962;2024-01-15T04:20:15;93861.03;;;-0.29;76.56
23339;BME280;11841;49.368;20.962;2024-01-15T04:23:01;93854.19;;;-0.37;76.79
23339;BME280;11841;49.368;20.962;2024-01-15T04:25:46;93854.56;;;-0.40;76.90
23339;BME280;11841;49.368;20.962;2024-01-15T04:28:32;93859.38;;;-0.37;76.70
23339;BME280;11841;49.368;20.962;2024-01-15T04:31:22;93857.38;;;-0.41;77.15
23339;BME280;11841;49.368;20.962;2024-01-15T04:34:07;93852.16;;;-0.41;77.25
23339;BME280;11841;49.368;20.962;2024-01-15T04:36:53;93850.09;;;-0.52;77.16
23339;BME280;11841;49.368;20.962;2024-01-15T04:39:38;93861.13;;;-0.50;77.23
23339;BME280;11841;49.368;20.962;2024-01-15T04:42:24;93851.75;;;-0.45;77.23
23339;BME280;11841;49.368;20.962;2024-01-15T04:45:09;93855.72;;;-0.49;76.74
23339;BME280;11841;49.368;20.962;2024-01-15T04:47:55;93850.53;;;-0.49;76.89
23339;BME280;11841;49.368;20.962;2024-01-15T04:50:43;93849.09;;;-0.58;75.92
23339;BME280;11841;49.368;20.962;2024-01-15T04:53:29;93844.88;;;-0.59;76.31
23339;BME280;11841;49.368;20.962;2024-01-15T04:56:14;93850.09;;;-0.59;76.11
23339;BME280;11841;49.368;20.962;2024-01-15T04:58:59;93847.28;;;-0.57;76.01
23339;BME280;11841;49.368;20.962;2024-01-15T05:01:45;93839.69;;;-0.59;75.88
23339;BME280;11841;49.368;20.962;2024-01-15T05:04:30;93845.06;;;-0.67;75.32
23339;BME280;11841;49.368;20.962;2024-01-15T05:07:15;93835.59;;;-0.74;75.16
23339;BME280;11841;49.368;20.962;2024-01-15T05:10:01;93834.59;;;-0.80;75.26
23339;BME280;11841;49.368;20.962;2024-01-15T05:12:46;93829.19;;;-0.85;74.41
23339;BME280;11841;49.368;20.962;2024-01-15T05:15:32;93837.13;;;-0.93;74.99
23339;BME280;11841;49.368;20.962;2024-01-15T05:18:17;93833.91;;;-0.95;74.71
23339;BME280;11841;49.368;20.962;2024-01-15T05:21:03;93836.47;;;-1.01;73.95
23339;BME280;11841;49.368;20.962;2024-01-15T05:23:48;93843.81;;;-1.11;73.77
23339;BME280;11841;49.368;20.962;2024-01-15T05:26:34;93842.19;;;-1.19;73.87
23339;BME280;11841;49.368;20.962;2024-01-15T05:29:19;93830.94;;;-1.26;73.39
23339;BME280;11841;49.368;20.962;2024-01-15T05:32:05;93837.06;;;-1.34;73.23
23339;BME280;11841;49.368;20.962;2024-01-15T05:34:50;93830.06;;;-1.40;73.36
23339;BME280;11841;49.368;20.962;2024-01-15T05:37:36;93831.59;;;-1.45;73.18
23339;BME280;11841;49.368;20.962;2024-01-15T05:40:21;93843.75;;;-1.52;73.03
23339;BME280;11841;49.368;20.962;2024-01-15T05:43:06;93838.69;;;-1.60;73.02
23339;BME280;11841;49.368;20.962;2024-01-15T05:45:52;93837.88;;;-1.61;73.52
23339;BME280;11841;49.368;20.962;2024-01-15T05:48:37;93833.84;;;-1.70;73.33
23339;BME280;11841;49.368;20.962;2024-01-15T05:51:23;93841.97;;;-1.73;73.54
23339;BME280;11841;49.368;20.962;2024-01-15T05:54:08;93838.75;;;-1.75;73.68
23339;BME280;11841;49.368;20.962;2024-01-15T05:56:53;93831.78;;;-1.74;73.70
23339;BME280;11841;49.368;20.962;2024-01-15T05:59:39;93834.00;;;-1.71;74.02
23339;BME280;11841;49.368;20.962;2024-01-15T06:02:24;93823.44;;;-1.70;73.67
23339;BME280;11841;49.368;20.962;2024-01-15T06:05:10;93823.16;;;-1.75;73.39
23339;BME280;11841;49.368;20.962;2024-01-15T06:07:55;93828.38;;;-1.75;73.60
23339;BME280;11841;49.368;20.962;2024-01-15T06:10:41;93821.72;;;-1.84;73.37
23339;BME280;11841;49.368;20.962;2024-01-15T06:13:26;93822.47;;;-1.90;73.46
23339;BME280;11841;49.368;20.962;2024-01-15T06:16:14;93808.88;;;-1.92;73.81
23339;BME280;11841;49.368;20.962;2024-01-15T06:19:00;93817.06;;;-1.88;73.45
23339;BME280;11841;49.368;20.962;2024-01-15T06:21:45;93822.25;;;-1.88;73.65
23339;BME280;11841;49.368;20.962;2024-01-15T06:24:31;93815.63;;;-1.97;73.24
23339;BME280;11841;49.368;20.962;2024-01-15T06:27:16;93821.19;;;-2.00;73.70
23339;BME280;11841;49.368;20.962;2024-01-15T06:30:01;93815.13;;;-2.07;74.13
23339;BME280;11841;49.368;20.962;2024-01-15T06:32:47;93809.56;;;-2.04;73.85
23339;BME280;11841;49.368;20.962;2024-01-15T06:35:33;93813.16;;;-2.05;74.09
23339;BME280;11841;49.368;20.962;2024-01-15T06:38:19;93810.19;;;-2.02;73.53
23339;BME280;11841;49.368;20.962;2024-01-15T06:41:05;93805.09;;;-2.10;72.83
23339;BME280;11841;49.368;20.962;2024-01-15T06:43:50;93797.69;;;-2.13;73.26
23339;BME280;11841;49.368;20.962;2024-01-15T06:46:35;93804.69;;;-2.14;73.27
23339;BME280;11841;49.368;20.962;2024-01-15T06:49:21;93802.25;;;-2.15;73.21
23339;BME280;11841;49.368;20.962;2024-01-15T06:52:09;93810.03;;;-2.15;73.44
23339;BME280;11841;49.368;20.962;2024-01-15T06:54:54;93804.06;;;-2.16;73.59
23339;BME280;11841;49.368;20.962;2024-01-15T06:57:40;93805.47;;;-2.13;73.74
23339;BME280;11841;49.368;20.962;2024-01-15T07:00:26;93803.06;;;-2.15;73.45
23339;BME280;11841;49.368;20.962;2024-01-15T07:03:12;93807.81;;;-2.18;73.83
23339;BME280;11841;49.368;20.962;2024-01-15T07:05:58;93801.66;;;-2.17;73.81
23339;BME280;11841;49.368;20.962;2024-01-15T07:08:43;93796.66;;;-2.19;73.80
23339;BME280;11841;49.368;20.962;2024-01-15T07:11:28;93793.88;;;-2.17;73.68
23339;BME280;11841;49.368;20.962;2024-01-15T07:14:13;93793.97;;;-2.25;73.97
23339;BME280;11841;49.368;20.962;2024-01-15T07:16:59;93798.56;;;-2.27;74.08
23339;BME280;11841;49.368;20.962;2024-01-15T07:19:44;93798.88;;;-2.37;74.73
23339;BME280;11841;49.368;20.962;2024-01-15T07:22:29;93802.09;;;-2.35;74.84
23339;BME280;11841;49.368;20.962;2024-01-15T07:25:15;93794.50;;;-2.36;74.78
23339;BME280;11841;49.368;20.962;2024-01-15T07:28:01;93790.53;;;-2.32;75.05
23339;BME280;11841;49.368;20.962;2024-01-15T07:30:47;93788.19;;;-2.27;75.06
23339;BME280;11841;49.368;20.962;2024-01-15T07:33:32;93775.09;;;-2.19;75.11
23339;BME280;11841;49.368;20.962;2024-01-15T07:36:18;93760.13;;;-2.17;74.68
23339;BME280;11841;49.368;20.962;2024-01-15T07:39:03;93761.91;;;-2.18;74.65
23339;BME280;11841;49.368;20.962;2024-01-15T07:41:49;93753.50;;;-2.20;75.10
23339;BME280;11841;49.368;20.962;2024-01-15T07:44:34;93754.31;;;-2.19;75.60
23339;BME280;11841;49.368;20.962;2024-01-15T07:47:20;93750.34;;;-2.15;75.44
23339;BME280;11841;49.368;20.962;2024-01-15T07:50:05;93760.00;;;-2.09;75.16
23339;BME280;11841;49.368;20.962;2024-01-15T07:52:51;93748.06;;;-2.04;75.47
23339;BME280;11841;49.368;20.962;2024-01-15T07:55:38;93752.88;;;-2.01;75.21
23339;BME280;11841;49.368;20.962;2024-01-15T07:58:24;93760.47;;;-1.99;75.51
23339;BME280;11841;49.368;20.962;2024-01-15T08:01:09;93767.97;;;-2.11;75.60
23339;BME280;11841;49.368;20.962;2024-01-15T08:03:55;93757.59;;;-2.11;75.21
23339;BME280;11841;49.368;20.962;2024-01-15T08:06:40;93771.97;;;-2.08;75.54
23339;BME280;11841;49.368;20.962;2024-01-15T08:09:26;93768.81;;;-2.04;75.48
23339;BME280;11841;49.368;20.962;2024-01-15T08:12:11;93776.44;;;-2.02;74.94
23339;BME280;11841;49.368;20.962;2024-01-15T08:14:57;93776.44;;;-2.02;75.14
23339;BME280;11841;49.368;20.962;2024-01-15T08:17:43;93774.22;;;-2.05;75.05
23339;BME280;11841;49.368;20.962;2024-01-15T08:20:28;93771.78;;;-2.07;75.17
23339;BME280;11841;49.368;20.962;2024-01-15T08:23:14;93777.97;;;-2.08;75.21
23339;BME280;11841;49.368;20.962;2024-01-15T08:25:59;93772.59;;;-2.06;75.48
23339;BME280;11841;49.368;20.962;2024-01-15T08:28:45;93772.81;;;-2.01;75.79
23339;BME280;11841;49.368;20.962;2024-01-15T08:31:30;93771.66;;;-1.99;75.23
23339;BME280;11841;49.368;20.962;2024-01-15T08:34:16;93775.28;;;-1.93;75.55
23339;BME280;11841;49.368;20.962;2024-01-15T08:37:02;93774.94;;;-1.90;75.64
23339;BME280;11841;49.368;20.962;2024-01-15T08:39:48;93775.78;;;-1.83;75.63
23339;BME280;11841;49.368;20.962;2024-01-15T08:42:36;93771.41;;;-1.76;75.71
23339;BME280;11841;49.368;20.962;2024-01-15T08:45:21;93776.25;;;-1.73;75.79
23339;BME280;11841;49.368;20.962;2024-01-15T08:48:08;93778.28;;;-1.69;75.70
23339;BME280;11841;49.368;20.962;2024-01-15T08:50:54;93772.13;;;-1.61;75.91
23339;BME280;11841;49.368;20.962;2024-01-15T08:53:39;93769.59;;;-1.55;76.09
23339;BME280;11841;49.368;20.962;2024-01-15T08:56:25;93788.44;;;-1.46;76.18
23339;BME280;11841;49.368;20.962;2024-01-15T08:59:12;93799.47;;;-1.38;75.77
23339;BME280;11841;49.368;20.962;2024-01-15T09:01:57;93794.31;;;-1.31;75.69
23339;BME280;11841;49.368;20.962;2024-01-15T09:04:42;93791.94;;;-1.26;75.62
23339;BME280;11841;49.368;20.962;2024-01-15T09:07:28;93796.97;;;-1.18;75.46
23339;BME280;11841;49.368;20.962;2024-01-15T09:10:14;93793.75;;;-1.20;75.24
23339;BME280;11841;49.368;20.962;2024-01-15T09:12:59;93785.34;;;-1.22;75.18
23339;BME280;11841;49.368;20.962;2024-01-15T09:15:45;93790.94;;;-1.25;75.07
23339;BME280;11841;49.368;20.962;2024-01-15T09:18:31;93791.56;;;-1.23;75.23
23339;BME280;11841;49.368;20.962;2024-01-15T09:21:17;93785.34;;;-1.22;75.24
23339;BME280;11841;49.368;20.962;2024-01-15T09:24:02;93794.78;;;-1.21;75.09
23339;BME280;11841;49.368;20.962;2024-01-15T09:26:48;93788.56;;;-1.20;75.14
23339;BME280;11841;49.368;20.962;2024-01-15T09:29:33;93777.78;;;-1.17;75.11
23339;BME280;11841;49.368;20.962;2024-01-15T09:32:21;93781.38;;;-1.18;75.14
23339;BME280;11841;49.368;20.962;2024-01-15T09:35:07;93769.00;;;-1.16;75.22
23339;BME280;11841;49.368;20.962;2024-01-15T09:37:54;93780.38;;;-1.17;74.81
23339;BME280;11841;49.368;20.962;2024-01-15T09:40:43;93785.41;;;-1.15;75.26
23339;BME280;11841;49.368;20.962;2024-01-15T09:43:30;93773.22;;;-1.08;75.00
23339;BME280;11841;49.368;20.962;2024-01-15T09:46:15;93760.28;;;-1.02;75.20
23339;BME280;11841;49.368;20.962;2024-01-15T09:49:01;93753.06;;;-1.00;74.84
23339;BME280;11841;49.368;20.962;2024-01-15T09:51:47;93754.69;;;-0.92;75.13
23339;BME280;11841;49.368;20.962;2024-01-15T09:54:47;93754.72;;;-0.86;75.33
23339;BME280;11841;49.368;20.962;2024-01-15T09:57:33;93748.13;;;-0.82;75.31
23339;BME280;11841;49.368;20.962;2024-01-15T10:00:18;93739.31;;;-0.81;75.05
23339;BME280;11841;49.368;20.962;2024-01-15T10:03:05;93735.34;;;-0.83;74.66
23339;BME280;11841;49.368;20.962;2024-01-15T10:05:51;93738.72;;;-0.83;74.85
23339;BME280;11841;49.368;20.962;2024-01-15T10:08:37;93737.94;;;-0.83;74.59
23339;BME280;11841;49.368;20.962;2024-01-15T10:11:22;93747.94;;;-0.80;74.82
23339;BME280;11841;49.368;20.962;2024-01-15T10:14:09;93747.13;;;-0.81;74.43
23339;BME280;11841;49.368;20.962;2024-01-15T10:16:54;93734.31;;;-0.82;74.54
23339;BME280;11841;49.368;20.962;2024-01-15T10:19:40;93726.94;;;-0.79;75.10
23339;BME280;11841;49.368;20.962;2024-01-15T10:22:31;93720.16;;;-0.67;75.01
23339;BME280;11841;49.368;20.962;2024-01-15T10:25:17;93717.97;;;-0.57;74.71
23339;BME280;11841;49.368;20.962;2024-01-15T10:28:08;93711.59;;;-0.48;75.19
23339;BME280;11841;49.368;20.962;2024-01-15T10:30:56;93702.56;;;-0.39;75.03
23339;BME280;11841;49.368;20.962;2024-01-15T10:33:41;93709.81;;;-0.28;75.31
23339;BME280;11841;49.368;20.962;2024-01-15T10:36:27;93713.44;;;-0.16;75.23
23339;BME280;11841;49.368;20.962;2024-01-15T10:39:13;93707.19;;;-0.08;74.99
23339;BME280;11841;49.368;20.962;2024-01-15T10:41:59;93716.44;;;0.01;75.08
23339;BME280;11841;49.368;20.962;2024-01-15T10:44:44;93715.59;;;0.07;75.33
23339;BME280;11841;49.368;20.962;2024-01-15T10:47:32;93717.22;;;0.15;75.30
23339;BME280;11841;49.368;20.962;2024-01-15T10:50:17;93711.59;;;0.24;75.15
23339;BME280;11841;49.368;20.962;2024-01-15T10:53:03;93723.81;;;0.30;75.00
23339;BME280;11841;49.368;20.962;2024-01-15T10:55:50;93724.63;;;0.37;75.24
23339;BME280;11841;49.368;20.962;2024-01-15T10:58:36;93716.38;;;0.47;74.94
23339;BME280;11841;49.368;20.962;2024-01-15T11:01:23;93715.94;;;0.56;74.89
23339;BME280;11841;49.368;20.962;2024-01-15T11:04:14;93713.53;;;0.68;74.60
23339;BME280;11841;49.368;20.962;2024-01-15T11:06:59;93712.47;;;0.82;74.37
23339;BME280;11841;49.368;20.962;2024-01-15T11:09:45;93703.00;;;0.94;73.42
23339;BME280;11841;49.368;20.962;2024-01-15T11:12:31;93687.69;;;1.04;72.95
23339;BME280;11841;49.368;20.962;2024-01-15T11:15:19;93694.06;;;1.14;73.14
23339;BME280;11841;49.368;20.962;2024-01-15T11:18:06;93694.41;;;1.24;73.17
23339;BME280;11841;49.368;20.962;2024-01-15T11:24:03;93682.69;;;1.40;72.81
23339;BME280;11841;49.368;20.962;2024-01-15T11:26:51;93693.25;;;1.52;72.55
23339;BME280;11841;49.368;20.962;2024-01-15T11:29:39;93695.44;;;1.55;72.63
23339;BME280;11841;49.368;20.962;2024-01-15T11:32:33;93699.63;;;1.62;71.73
23339;BME280;11841;49.368;20.962;2024-01-15T11:35:19;93702.19;;;1.69;70.98
23339;BME280;11841;49.368;20.962;2024-01-15T11:38:04;93694.47;;;1.80;71.15
23339;BME280;11841;49.368;20.962;2024-01-15T11:40:50;93697.41;;;1.90;71.69
23339;BME280;11841;49.368;20.962;2024-01-15T11:43:35;93694.72;;;2.03;71.60
23339;BME280;11841;49.368;20.962;2024-01-15T11:46:22;93690.66;;;2.07;71.13
23339;BME280;11841;49.368;20.962;2024-01-15T11:49:17;93693.03;;;2.09;70.72
23339;BME280;11841;49.368;20.962;2024-01-15T11:52:18;93688.41;;;2.11;70.52
23339;BME280;11841;49.368;20.962;2024-01-15T11:58:29;93686.59;;;2.11;69.33
23339;BME280;11841;49.368;20.962;2024-01-15T12:01:15;93682.97;;;2.12;69.27
23339;BME280;11841;49.368;20.962;2024-01-15T12:04:01;93683.56;;;2.14;69.72
23339;BME280;11841;49.368;20.962;2024-01-15T12:06:46;93675.94;;;2.13;68.66
23339;BME280;11841;49.368;20.962;2024-01-15T12:09:31;93672.09;;;2.15;68.47
23339;BME280;11841;49.368;20.962;2024-01-15T12:12:25;93677.31;;;2.15;68.31
23339;BME280;11841;49.368;20.962;2024-01-15T12:15:14;93666.00;;;2.21;68.67
23339;BME280;11841;49.368;20.962;2024-01-15T12:18:01;93658.97;;;2.22;68.81
23339;BME280;11841;49.368;20.962;2024-01-15T12:20:49;93653.53;;;2.23;68.83
23339;BME280;11841;49.368;20.962;2024-01-15T12:23:35;93644.88;;;2.23;68.89
23339;BME280;11841;49.368;20.962;2024-01-15T12:26:20;93643.28;;;2.22;68.40
23339;BME280;11841;49.368;20.962;2024-01-15T12:29:06;93641.50;;;2.16;68.27
23339;BME280;11841;49.368;20.962;2024-01-15T12:31:53;93651.13;;;2.22;68.00
23339;BME280;11841;49.368;20.962;2024-01-15T12:34:38;93660.13;;;2.26;67.72
23339;BME280;11841;49.368;20.962;2024-01-15T12:37:24;93662.66;;;2.32;67.74
23339;BME280;11841;49.368;20.962;2024-01-15T12:40:11;93668.84;;;2.38;66.81
23339;BME280;11841;49.368;20.962;2024-01-15T12:42:56;93677.06;;;2.41;66.72
23339;BME280;11841;49.368;20.962;2024-01-15T12:45:42;93680.28;;;2.43;66.35
23339;BME280;11841;49.368;20.962;2024-01-15T12:48:28;93682.44;;;2.46;66.19
23339;BME280;11841;49.368;20.962;2024-01-15T12:51:14;93692.97;;;2.40;65.38
23339;BME280;11841;49.368;20.962;2024-01-15T12:54:00;93694.63;;;2.34;65.70
23339;BME280;11841;49.368;20.962;2024-01-15T12:56:45;93703.66;;;2.38;65.92
23339;BME280;11841;49.368;20.962;2024-01-15T12:59:31;93709.31;;;2.35;65.44
23339;BME280;11841;49.368;20.962;2024-01-15T13:02:16;93710.97;;;2.30;65.22
23339;BME280;11841;49.368;20.962;2024-01-15T13:05:03;93710.16;;;2.29;65.44
23339;BME280;11841;49.368;20.962;2024-01-15T13:07:49;93705.53;;;2.31;65.53
23339;BME280;11841;49.368;20.962;2024-01-15T13:10:35;93717.00;;;2.30;65.99
23339;BME280;11841;49.368;20.962;2024-01-15T13:13:20;93711.84;;;2.24;65.77
23339;BME280;11841;49.368;20.962;2024-01-15T13:16:05;93717.06;;;2.24;65.76
23339;BME280;11841;49.368;20.962;2024-01-15T13:18:51;93715.06;;;2.19;65.28
23339;BME280;11841;49.368;20.962;2024-01-15T13:21:37;93721.38;;;2.12;65.19
23339;BME280;11841;49.368;20.962;2024-01-15T13:24:22;93728.09;;;2.01;65.07
23339;BME280;11841;49.368;20.962;2024-01-15T13:27:08;93729.31;;;1.99;65.41
23339;BME280;11841;49.368;20.962;2024-01-15T13:29:53;93730.13;;;1.99;65.62
23339;BME280;11841;49.368;20.962;2024-01-15T13:32:39;93726.75;;;1.92;65.53
23339;BME280;11841;49.368;20.962;2024-01-15T13:35:24;93729.63;;;1.84;65.16
23339;BME280;11841;49.368;20.962;2024-01-15T13:38:10;93725.00;;;1.86;64.69
23339;BME280;11841;49.368;20.962;2024-01-15T13:40:56;93732.25;;;1.84;64.95
23339;BME280;11841;49.368;20.962;2024-01-15T13:43:41;93735.84;;;1.83;64.64
23339;BME280;11841;49.368;20.962;2024-01-15T13:46:27;93717.38;;;1.78;64.23
23339;BME280;11841;49.368;20.962;2024-01-15T13:49:12;93715.22;;;1.75;63.56
23339;BME280;11841;49.368;20.962;2024-01-15T13:51:57;93730.97;;;1.62;62.38
23339;BME280;11841;49.368;20.962;2024-01-15T13:54:43;93730.75;;;1.64;62.87
23339;BME280;11841;49.368;20.962;2024-01-15T13:57:34;93728.63;;;1.54;62.64
23339;BME280;11841;49.368;20.962;2024-01-15T14:00:20;93745.31;;;1.47;62.93
23339;BME280;11841;49.368;20.962;2024-01-15T14:03:06;93731.28;;;1.41;62.50
23339;BME280;11841;49.368;20.962;2024-01-15T14:05:54;93732.91;;;1.42;62.84
23339;BME280;11841;49.368;20.962;2024-01-15T14:08:43;93723.91;;;1.32;62.24
23339;BME280;11841;49.368;20.962;2024-01-15T14:11:38;93719.63;;;1.44;62.96
23339;BME280;11841;49.368;20.962;2024-01-15T14:14:23;93729.94;;;1.32;62.61
23339;BME280;11841;49.368;20.962;2024-01-15T14:17:09;93724.50;;;1.34;63.19
23339;BME280;11841;49.368;20.962;2024-01-15T14:19:54;93725.66;;;1.38;62.87
23339;BME280;11841;49.368;20.962;2024-01-15T14:22:41;93721.84;;;1.40;63.13
23339;BME280;11841;49.368;20.962;2024-01-15T14:25:26;93730.13;;;1.37;62.87
23339;BME280;11841;49.368;20.962;2024-01-15T14:28:12;93722.44;;;1.42;63.24
23339;BME280;11841;49.368;20.962;2024-01-15T14:30:57;93723.63;;;1.46;63.17
23339;BME280;11841;49.368;20.962;2024-01-15T14:33:46;93724.81;;;1.50;63.30
23339;BME280;11841;49.368;20.962;2024-01-15T14:36:31;93720.44;;;1.44;63.27
23339;BME280;11841;49.368;20.962;2024-01-15T14:39:16;93715.81;;;1.40;62.92